• Join FlightAware (Why Join?)
  • Login
  • US Flag 
09:17PM EST


 

Airport Tracker/Info


-or-


 

Live Flight TrackerFlight Track Log ✈ N765XJ ✈ 23-Apr-2013 ✈ KPHF - KSGR

Flight Track Log - Related Links

Times and Time Zones

All times are in EDT time to prevent confusion due to time zone crossing. See the N765XJ flight status page for this flight to view local times or setup timezone preferences in your user account.

Time Position Orientation Groundspeed Altitude Reporting Facility
EDT Latitude Longitude Course Direction KTS MPH feet Rate Location/Type
08:16PM 37.1544 -76.4414 61° Northeast 201 231 1,900  Level Washington Center
08:17PM 37.1906 -76.3608 61° Northeast 262 302 5,000 3,120 Climbing Washington Center
08:18PM 37.1511 -76.3136 136° Southeast 258 297 8,000 2,460 Climbing Washington Center
08:20PM 37.0628 -76.4353 228° Southwest 275 316 12,100 2,040 Climbing Washington Center
08:21PM 37.0078 -76.5256 233° Southwest 308 354 14,100 1,920 Climbing Washington Center
08:23PM 36.8872 -76.7267 233° Southwest 364 419 18,000 1,920 Climbing Washington Center
08:24PM 36.8256 -76.8297 233° Southwest 371 427 19,900 1,680 Climbing Washington Center
08:25PM 36.7578 -76.9425 233° Southwest 389 448 21,400 1,500 Climbing Washington Center
08:26PM 36.6894 -77.0606 234° Southwest 409 471 22,900 1,500 Climbing Washington Center
08:27PM 36.6294 -77.1889 240° Southwest 422 486 24,400 1,500 Climbing Washington Center
08:28PM 36.5692 -77.3247 241° Southwest 440 506 25,900 1,260 Climbing Washington Center
08:29PM 36.5067 -77.4578 240° Southwest 440 506 27,000 1,020 Climbing Washington Center
08:30PM 36.4461 -77.5931 241° Southwest 446 513 28,000 480 Climbing Washington Center
08:31PM 36.3725 -77.7486 240° Southwest 459 528 28,000 600 Level Washington Center
08:32PM 36.3050 -77.8911 240° Southwest 474 545 29,200 960 Climbing Washington Center
08:33PM 36.2356 -78.0358 239° Southwest 484 557 30,000 720 Climbing Washington Center
08:34PM 36.1658 -78.1778 239° Southwest 484 557 30,700 900 Climbing Washington Center
08:35PM 36.1000 -78.3219 241° Southwest 484 557 31,800 1,140 Climbing Washington Center
08:36PM 36.0297 -78.4661 239° Southwest 484 557 33,000 1,200 Climbing Washington Center
08:37PM 35.9617 -78.6072 239° Southwest 484 557 34,200 1,200 Climbing Washington Center
08:38PM 35.8978 -78.7383 239° Southwest 484 557 35,400 1,260 Climbing Washington Center
08:39PM 35.8500 -78.8875 248° West 478 550 36,800 1,440 Climbing Washington Center
08:40PM 35.8081 -79.0419 252° West 478 550 38,300 1,380 Climbing Washington Center
08:41PM 35.7378 -79.3133 252° West 470 541 40,600 1,200 Climbing Atlanta Center
08:42PM 35.6997 -79.4614 252° West 470 541 41,600 960 Climbing Atlanta Center
08:43PM 35.6631 -79.6014 252° West 460 529 42,600 660 Climbing Atlanta Center
08:44PM 35.6264 -79.7414 252° West 448 516 43,000 180 Climbing Atlanta Center
08:45PM 35.5875 -79.8839 251° West 442 509 43,000  Level Atlanta Center
08:46PM 35.5372 -80.0064 243° Southwest 442 509 43,000  Level Atlanta Center
08:47PM 35.4811 -80.1417 243° Southwest 448 516 43,000  Level Atlanta Center
08:48PM 35.4211 -80.2925 244° Southwest 453 521 43,000  Level Atlanta Center
08:49PM 35.4098 -80.2747 244° Southwest  Level FlightAware Approximate
08:49PM 35.3647 -80.4300 243° Southwest 453 521 43,000  Level Atlanta Center
08:50PM 35.3083 -80.5700 244° Southwest 458 527 43,000  Level Atlanta Center
08:51PM 35.2517 -80.7069 243° Southwest 458 527 43,000  Level Atlanta Center
08:52PM 35.1947 -80.8467 244° Southwest 458 527 43,000  Level Atlanta Center
08:53PM 35.1378 -80.9808 243° Southwest 453 521 43,000  Level Atlanta Center
08:54PM 35.0847 -81.1225 245° Southwest 453 521 43,000  Level Atlanta Center
08:55PM 35.0503 -81.2531 252° West 448 516 43,000  Level Atlanta Center
08:56PM 35.0097 -81.3964 251° West 453 521 43,000  Level Atlanta Center
08:57PM 34.9689 -81.5422 251° West 461 531 43,000  Level Atlanta Center
08:58PM 34.9278 -81.6853 251° West 456 525 43,000  Level Atlanta Center
08:59PM 34.8850 -81.8458 252° West 451 519 43,000  Level Atlanta Center
09:00PM 34.8475 -81.9736 250° West 451 519 43,000  Level Atlanta Center
09:01PM 34.8061 -82.1161 251° West 451 519 43,000  Level Atlanta Center
09:02PM 34.7622 -82.2614 250° West 451 519 43,000  Level Atlanta Center
09:03PM 34.7225 -82.4086 252° West 451 519 43,000  Level Atlanta Center
09:04PM 34.6806 -82.5536 251° West 456 525 43,000  Level Atlanta Center
09:05PM 34.6322 -82.7108 250° West 455 524 43,000  Level Atlanta Center
09:06PM 34.5900 -82.8603 251° West 455 524 43,000  Level Atlanta Center
09:07PM 34.5497 -83.0047 251° West 455 524 43,000  Level Atlanta Center
09:08PM 34.5069 -83.1489 250° West 460 529 43,000  Level Atlanta Center
09:09PM 34.4619 -83.2931 249° West 460 529 43,000  Level Atlanta Center
09:10PM 34.4250 -83.4192 250° West 454 522 43,000  Level Atlanta Center
09:11PM 34.3797 -83.5631 249° West 454 522 43,000  Level Atlanta Center
09:12PM 34.3386 -83.7067 251° West 447 514 43,000  Level Atlanta Center
09:13PM 34.2950 -83.8478 250° West 457 526 43,000  Level Atlanta Center
09:14PM 34.2492 -83.9936 249° West 457 526 43,000  Level Atlanta Center
09:15PM 34.2075 -84.1367 251° West 457 526 43,000  Level Atlanta Center
09:16PM 34.1633 -84.2772 249° West 457 526 43,000  Level Atlanta Center
09:17PM 34.1108 -84.4378 248° West 457 526 43,000  Level Atlanta Center
09:18PM 34.0664 -84.5781 249° West 457 526 43,000  Level Atlanta Center
09:19PM 34.0242 -84.7181 250° West 452 520 43,000  Level Atlanta Center
09:20PM 33.9878 -84.8506 252° West 452 520 43,000  Level Atlanta Center
09:21PM 33.9431 -84.9903 249° West 452 520 43,000  Level Atlanta Center
09:22PM 33.8981 -85.1300 249° West 452 520 43,000  Level Atlanta Center
09:23PM 33.8486 -85.2819 249° West 452 520 43,000  Level Atlanta Center
09:24PM 33.8033 -85.4211 249° West 452 520 43,000  Level Atlanta Center
09:25PM 33.7578 -85.5606 249° West 452 520 43,000  Level Atlanta Center
09:26PM 33.7142 -85.6994 249° West 452 520 43,000  Level Atlanta Center
09:27PM 33.6708 -85.8161 246° West 446 513 43,000  Level Atlanta Center
09:28PM 33.6269 -85.9522 249° West 446 513 43,000  Level Atlanta Center
09:29PM 33.5811 -86.0908 248° West 446 513 43,000  Level Atlanta Center
09:30PM 33.5344 -86.2444 250° West 446 513 43,000  Level Atlanta Center
09:31PM 33.4883 -86.3778 248° West 453 521 43,000  Level Atlanta Center
09:32PM 33.4439 -86.5033 247° West 453 521 43,000  Level Atlanta Center
09:33PM 33.3972 -86.6414 248° West 448 516 43,000  Level Atlanta Center
09:34PM 33.3547 -86.7744 249° West 448 516 43,000  Level Atlanta Center
09:35PM 33.3078 -86.9122 248° West 448 516 43,000  Level Atlanta Center
09:36PM 33.2672 -87.0425 250° West 448 516 43,000  Level Atlanta Center
09:37PM 33.2156 -87.1872 247° West 448 516 43,000  Level Atlanta Center
09:40PM 33.1067 -87.4978 247° West 441 507 43,000  Level Memphis Center
09:41PM 33.0617 -87.6356 249° West 441 507 43,000  Level Memphis Center
09:42PM 33.0144 -87.7683 247° West 441 507 43,000  Level Memphis Center
09:43PM 32.9675 -87.9208 250° West 441 507 43,000  Level Memphis Center
09:44PM 32.9197 -88.0558 247° West 441 507 43,000  Level Memphis Center
09:45PM 32.8722 -88.1881 247° West 441 507 43,000  Level Memphis Center
09:46PM 32.8264 -88.3228 248° West 441 507 43,000  Level Memphis Center
09:47PM 32.7783 -88.4597 247° West 446 513 43,000  Level Memphis Center
09:48PM 32.7303 -88.5917 247° West 446 513 43,000  Level Memphis Center
09:49PM 32.6819 -88.7258 247° West 441 507 43,000  Level Memphis Center
09:50PM 32.6358 -88.8597 248° West 441 507 43,000  Level Memphis Center
09:51PM 32.5872 -88.9914 246° West 441 507 43,000  Level Memphis Center
09:52PM 32.5383 -89.1253 247° West 441 507 43,000  Level Memphis Center
09:53PM 32.4917 -89.2464 245° Southwest 446 513 43,000  Level Memphis Center
09:54PM 32.4406 -89.3925 248° West 446 513 43,000  Level Memphis Center
09:55PM 32.3936 -89.5258 247° West 440 506 43,000  Level Memphis Center
09:56PM 32.3422 -89.6589 245° Southwest 440 506 43,000  Level Memphis Center
09:57PM 32.2989 -89.7797 247° West 440 506 43,000  Level Memphis Center
09:58PM 32.2431 -89.9250 246° West 440 506 43,000  Level Memphis Center
09:59PM 32.1997 -90.0456 247° West 440 506 43,000  Level Memphis Center
10:00PM 32.1500 -90.1758 246° West 440 506 43,000  Level Memphis Center
10:02PM 32.0314 -90.4967 247° West 439 505 43,000  Level Houston Center
10:03PM 31.9836 -90.6267 247° West 437 503 43,000  Level Houston Center
10:04PM 31.9336 -90.7564 246° West 438 504 43,000  Level Houston Center
10:05PM 31.8831 -90.8894 246° West 435 501 43,000  Level Houston Center
10:06PM 31.8339 -91.0194 246° West 436 502 43,000  Level Houston Center
10:07PM 31.7847 -91.1478 246° West 436 502 43,000  Level Houston Center
10:08PM 31.7353 -91.2758 246° West 433 498 43,000  Level Houston Center
10:09PM 31.6783 -91.4261 246° West 423 487 43,000  Level Houston Center
10:10PM 31.6294 -91.5514 245° Southwest 423 487 43,000  Level Houston Center
10:11PM 31.5814 -91.6756 246° West 421 484 43,000  Level Houston Center
10:12PM 31.5331 -91.7994 245° Southwest 419 482 43,000  Level Houston Center
10:13PM 31.4847 -91.9247 246° West 423 487 43,000  Level Houston Center
10:14PM 31.4400 -92.0383 245° Southwest 422 486 43,000  Level Houston Center
10:15PM 31.3903 -92.1597 244° Southwest 416 479 43,000  Level Houston Center
10:16PM 31.3419 -92.2833 245° Southwest 419 482 43,000  Level Houston Center
10:17PM 31.2822 -92.4308 245° Southwest 421 484 43,000  Level Houston Center
10:18PM 31.2339 -92.5550 246° West 421 484 43,000 -60 Level Houston Center
10:19PM 31.1892 -92.6825 248° West 426 490 42,900  Descending Houston Center
10:20PM 31.1428 -92.8089 247° West 426 490 43,000  Climbing Houston Center
10:21PM 31.0969 -92.9336 247° West 423 487 43,000 -300 Level Houston Center
10:22PM 31.0500 -93.0600 247° West 425 489 42,400 -1,740 Descending Houston Center
10:23PM 31.0039 -93.1850 247° West 423 487 39,500 -2,880 Descending Houston Center
10:24PM 30.9594 -93.3058 247° West 418 481 36,600 -2,760 Descending Houston Center
10:26PM 30.9136 -93.4247 246° West 410 472 33,900 -2,580 Descending Houston Center
10:27PM 30.8633 -93.5567 246° West 438 504 31,400 -2,760 Descending Houston Center
10:28PM 30.8033 -93.7186 247° West 458 527 28,400 -2,700 Descending Houston Center
10:29PM 30.7514 -93.8542 246° West 461 531 26,000 -2,460 Descending Houston Center
10:30PM 30.7006 -93.9872 246° West 455 524 23,500 -2,460 Descending Houston Center
10:31PM 30.6508 -94.1175 246° West 447 514 21,000 -2,640 Descending Houston Center
10:32PM 30.5989 -94.2511 246° West 428 493 18,300 -2,700 Descending Houston Center
10:32PM 30.5619 -94.3433 245° Southwest 403 464 16,200 -2,160 Descending Houston Center
10:33PM 30.5572 -94.3597 252° West 407 468 16,000 -1,980 Descending Houston Center
10:33PM 30.5186 -94.4583 246° West 387 445 14,200 -1,980 Descending Houston Center
10:34PM 30.5133 -94.4722 246° West 391 450 14,000 -1,320 Descending Houston Center
10:34PM 30.4694 -94.5569 239° Southwest 382 440 13,000 -1,020 Descending Houston Center
10:35PM 30.4503 -94.5872 234° Southwest 380 437 13,000  Level Houston Center
10:35PM 30.4056 -94.6572 233° Southwest 377 434 13,000  Level Houston Center
10:36PM 30.3889 -94.6847 235° Southwest 379 436 13,000  Level Houston Center
10:36PM 30.3394 -94.7578 232° Southwest 379 436 13,000 -300 Level Houston Center
10:37PM 30.3247 -94.7825 235° Southwest 380 437 12,700 -1,500 Descending Houston Center
10:37PM 30.2753 -94.8556 232° Southwest 377 434 11,500 -1,500 Descending Houston Center
10:38PM 30.2619 -94.8786 236° Southwest 377 434 11,200 -1,380 Descending Houston Center
10:38PM 30.2133 -94.9553 234° Southwest 373 429 10,100 -1,200 Descending Houston Center
10:39PM 30.2003 -94.9747 232° Southwest 375 432 10,000 -120 Descending Houston Center
10:39PM 30.1447 -95.0531 231° Southwest 368 423 10,000  Level Houston Center
10:40PM 30.1347 -95.0625 219° Southwest 366 421 10,000  Level Houston Center
10:40PM 30.0492 -95.1086 205° Southwest 362 417 10,000  Level Houston Center
10:41PM 30.0436 -95.1103 195° South 362 417 10,000  Level Houston Center
10:42PM 29.9592 -95.1581 206° Southwest 357 411 10,000  Level Houston Center
10:42PM 29.9467 -95.1819 239° Southwest 362 417 10,000  Level Houston Center
10:42PM 29.9197 -95.2306 237° Southwest 355 409 10,000 -120 Level Houston Center
10:43PM 29.9056 -95.2758 250° West 332 382 9,900 -1,020 Descending Houston Center
10:43PM 29.8925 -95.3206 251° West 275 316 9,000 -1,620 Descending Houston Center
10:44PM 29.8667 -95.3472 222° Southwest 281 323 8,300 -2,220 Descending Houston Center
10:44PM 29.8342 -95.3733 215° Southwest 246 283 6,800 -3,000 Descending Houston Center
10:45PM 29.8125 -95.3956 222° Southwest 252 290 5,300 -3,000 Descending Houston Center
10:45PM 29.8097 -95.4511 267° West 256 295 3,500 -2,280 Descending Houston Center
10:46PM 29.8142 -95.4722 284° West 249 287 3,000 -1,560 Descending Houston Center
10:46PM 29.8222 -95.5194 281° West 250 288 2,100 -1,020 Descending Houston Center
10:47PM 29.8289 -95.5483 285° West 248 285 2,000 -120 Descending Houston Center
10:47PM 29.8353 -95.5925 279° West 213 245 2,000  Level Houston Center
10:48PM 29.8344 -95.6181 268° West 234 269 2,000  Level Houston Center
10:48PM 29.8222 -95.6589 251° West 204 235 2,000  Level Houston Center
10:49PM 29.8078 -95.6697 213° Southwest 212 244 2,000  Level Houston Center
10:49PM 29.7750 -95.6717 183° South 177 204 2,000  Level Houston Center
10:50PM 29.7603 -95.6703 175° South 188 216 2,000 -120 Level Houston Center
10:51PM 29.7222 -95.6658 174° South 156 180 1,900 -420 Descending Houston Center
10:51PM 29.7083 -95.6656 179° South 169 194 1,600 -780 Descending Houston Center
10:52PM 29.6861 -95.6628 174° South 133 153 1,200 -720 Descending Houston Center
10:52PM 29.6706 -95.6619 177° South 153 176 900 -720 Descending Houston Center
10:53PM 29.6503 -95.6600 175° South 123 142 500 -600 Descending Houston Center
10:53PM 29.6417 -95.6592 175° South 143 165 300 -480 Descending Houston Center
10:55PM 29.6167 -95.6500 175° South  Level FlightAware Approximate